This is the latest recevied weather packets stored in our database for station/object EA3FHP. If no packets are shown the sender has not sent any weather packets the latest 10 day(s).
| Time | Temp. | Humidity | Pressure | Rain* | Wind** | Luminosity | Snow |
|---|---|---|---|---|---|---|---|
| 1787838603 | 34.44° C | 44% | 1013.1 hPa | 0 mm | - | - | - |
| 1787838003 | 34.44° C | 44% | 1013.1 hPa | 0 mm | - | - | - |
| 1787837403 | 34.44° C | 42% | 1013.2 hPa | 0 mm | - | - | - |
| 1787836804 | 34.44° C | 41% | 1013.2 hPa | 0 mm | - | - | - |
| 1787836203 | 34.44° C | 40% | 1013.2 hPa | 0 mm | - | - | - |
| 1787835605 | 35.56° C | 36% | 1013 hPa | 0 mm | - | - | - |
| 1787835003 | 34.44° C | 39% | 1013.1 hPa | 0 mm | - | - | - |
| 1787834403 | 34.44° C | 39% | 1013 hPa | 0 mm | - | - | - |
| 1787833803 | 34.44° C | 39% | 1013.2 hPa | 0 mm | - | - | - |
| 1787833203 | 33.89° C | 38% | 1013.3 hPa | 0 mm | - | - | - |
| 1787832603 | 34.44° C | 39% | 1013.5 hPa | 0 mm | - | - | - |
| 1787832003 | 33.89° C | 39% | 1013.3 hPa | 0 mm | - | - | - |
| 1787831403 | 32.78° C | 45% | 1013.4 hPa | 0 mm | - | - | - |
| 1787830803 | 32.78° C | 46% | 1013.9 hPa | 0 mm | - | - | - |
| 1787830203 | 32.22° C | 46% | 1013.7 hPa | 0 mm | - | - | - |
| 1787829603 | 32.22° C | 49% | 1014 hPa | 0 mm | - | - | - |
| 1787829003 | 31.67° C | 50% | 1013.9 hPa | 0 mm | - | - | - |
| 1787828403 | 31.67° C | 52% | 1014 hPa | 0 mm | - | - | - |
| 1787827803 | 31.11° C | 54% | 1014.3 hPa | 0 mm | - | - | - |
| 1787827203 | 30.56° C | 54% | 1014.5 hPa | 0 mm | - | - | - |
| 1787826603 | 30° C | 57% | 1014.6 hPa | 0 mm | - | - | - |
| 1787826003 | 30° C | 56% | 1015 hPa | 0 mm | - | - | - |
| 1787825403 | 30° C | 58% | 1014.9 hPa | 0 mm | - | - | - |
| 1787824803 | 30.56° C | 58% | 1014.8 hPa | 0 mm | - | - | - |
| 1787824203 | 30° C | 58% | 1015 hPa | 0 mm | - | - | - |
* Rain latest hour (hover to see other rain measurements)
** Current wind speed in m/s (hover to see current wind gust speed)